Time;durP1;ratioP1;P1;durP2;ratioP2;P2;SDS_P1;SDS_P2;PMS_P1;PMS_P2;Temp;Humidity;BMP_temperature;BMP_pressure;BME280_temperature;BME280_humidity;BME280_pressure;Samples;Min_cycle;Max_cycle;Signal;HPM_P1;HPM_P2
2024/03/19 00:01:36;;;;;;;;;;;;;;;19.96;37.09;100575.22;102684;1294;75256;-80
2024/03/19 00:04:02;;;;;;;;;;;;;;;19.96;37.17;100573.21;102765;1291;62209;-82
2024/03/19 00:06:27;;;;;;;;;;;;;;;19.96;37.06;100569.67;102674;1291;62284;-80
2024/03/19 00:08:53;;;;;;;;;;;;;;;19.96;37.02;100562.16;102688;1291;62157;-79
2024/03/19 00:11:19;;;;;;;;;;;;;;;19.96;37.13;100563.95;102725;1297;62190;-81
2024/03/19 00:13:44;;;;;;;;;;;;;;;19.96;36.96;100558.60;102619;1291;76138;-80
2024/03/19 00:16:10;;;;;;;;;;;;;;;19.96;37.10;100553.77;102629;1294;63487;-80
2024/03/19 00:18:36;;;;;;;;;;;;;;;19.95;36.97;100553.48;102759;1291;63324;-80
2024/03/19 00:21:03;;;;;;;;;;;;;;;19.96;37.03;100555.02;102719;1296;62057;-81
2024/03/19 00:23:29;;;;;;;;;;;;;;;19.96;37.01;100554.33;102677;1296;62195;-80
2024/03/19 00:25:55;;;;;;;;;;;;;;;19.95;36.97;100551.48;102714;1295;62489;-81
2024/03/19 00:28:20;;;;;;;;;;;;;;;19.95;37.05;100550.09;102644;1292;63596;-80
2024/03/19 00:30:46;;;;;;;;;;;;;;;19.96;37.10;100552.00;102736;1292;63561;-80
2024/03/19 00:33:12;;;;;;;;;;;;;;;19.95;37.06;100551.52;102693;1295;72333;-81
2024/03/19 00:35:41;;;;;;;;;;;;;;;19.96;37.07;100552.19;102604;1292;62176;-80
2024/03/19 00:38:07;;;;;;;;;;;;;;;19.95;37.06;100547.75;102629;1291;63254;-80
2024/03/19 00:40:32;;;;;;;;;;;;;;;19.96;36.97;100545.58;102597;1292;62195;-80
2024/03/19 00:42:58;;;;;;;;;;;;;;;19.95;36.97;100543.64;102688;1292;62206;-79
2024/03/19 00:45:24;;;;;;;;;;;;;;;19.95;36.93;100545.98;102682;1297;63075;-79
2024/03/19 00:47:49;;;;;;;;;;;;;;;19.95;37.12;100540.95;102655;1292;62306;-81
2024/03/19 00:50:15;;;;;;;;;;;;;;;19.95;37.04;100544.17;102729;1297;63379;-80
2024/03/19 00:52:42;;;;;;;;;;;;;;;19.96;37.08;100547.70;102781;1291;62180;-80
2024/03/19 00:55:08;;;;;;;;;;;;;;;19.96;36.97;100546.09;102669;1297;62232;-80
2024/03/19 00:57:34;;;;;;;;;;;;;;;19.96;36.97;100544.63;102668;1296;62365;-80
2024/03/19 01:00:00;;;;;;;;;;;;;;;19.96;36.93;100552.48;102678;1293;63261;-79
2024/03/19 01:02:26;;;;;;;;;;;;;;;19.97;36.89;100548.00;102718;1291;62260;-82
2024/03/19 01:04:52;;;;;;;;;;;;;;;19.96;36.98;100548.20;102748;1297;62820;-81
2024/03/19 01:07:18;;;;;;;;;;;;;;;19.96;36.86;100546.96;102662;1292;62281;-79
2024/03/19 01:09:44;;;;;;;;;;;;;;;19.96;36.95;100548.23;102693;1292;62278;-82
2024/03/19 01:12:09;;;;;;;;;;;;;;;19.96;37.01;100550.35;102673;1291;63545;-79
2024/03/19 01:14:36;;;;;;;;;;;;;;;19.96;36.91;100545.36;102766;1295;62088;-80
2024/03/19 01:17:03;;;;;;;;;;;;;;;19.96;36.91;100543.93;102618;1292;62198;-81
2024/03/19 01:19:28;;;;;;;;;;;;;;;19.96;36.83;100540.56;102655;1294;75299;-80
2024/03/19 01:21:54;;;;;;;;;;;;;;;19.95;36.77;100536.30;102786;1294;62179;-79
2024/03/19 01:24:20;;;;;;;;;;;;;;;19.95;36.86;100536.14;102688;1292;62197;-79
2024/03/19 01:26:45;;;;;;;;;;;;;;;19.94;36.83;100532.63;102614;1292;63412;-81
2024/03/19 01:29:11;;;;;;;;;;;;;;;19.95;36.78;100532.42;102807;1292;62179;-79
2024/03/19 01:31:36;;;;;;;;;;;;;;;19.95;36.64;100533.84;102851;1291;75140;-80
2024/03/19 01:34:02;;;;;;;;;;;;;;;19.94;36.77;100533.69;102596;1297;63500;-80
2024/03/19 01:36:28;;;;;;;;;;;;;;;19.95;36.66;100530.12;102705;1292;63492;-80
2024/03/19 01:38:53;;;;;;;;;;;;;;;19.95;36.70;100529.91;102698;1296;62648;-79
2024/03/19 01:41:19;;;;;;;;;;;;;;;19.95;36.69;100525.11;102639;1292;62202;-81
2024/03/19 01:43:45;;;;;;;;;;;;;;;19.95;36.65;100524.39;102680;1297;75498;-79
2024/03/19 01:46:20;;;;;;;;;;;;;;;19.94;36.66;100525.66;102724;1292;62122;-81
2024/03/19 01:48:47;;;;;;;;;;;;;;;19.94;36.63;100519.22;102708;1292;62120;-79
2024/03/19 01:51:13;;;;;;;;;;;;;;;19.95;36.50;100527.42;102627;1292;62229;-81
2024/03/19 01:53:38;;;;;;;;;;;;;;;19.95;36.73;100522.24;102694;1297;62275;-80
2024/03/19 01:56:04;;;;;;;;;;;;;;;19.95;36.66;100524.17;102623;1292;62133;-80
2024/03/19 01:58:30;;;;;;;;;;;;;;;19.95;36.66;100520.45;102583;1292;62255;-80
2024/03/19 02:00:56;;;;;;;;;;;;;;;19.94;36.51;100522.08;102638;1291;62302;-80
2024/03/19 02:03:22;;;;;;;;;;;;;;;19.93;36.50;100524.80;102733;1297;62278;-80
2024/03/19 02:05:47;;;;;;;;;;;;;;;19.94;36.43;100524.80;102645;1292;75296;-80
2024/03/19 02:08:13;;;;;;;;;;;;;;;19.93;36.44;100524.62;102705;1297;62196;-82
2024/03/19 02:10:39;;;;;;;;;;;;;;;19.94;36.55;100530.33;102625;1296;63465;-79
2024/03/19 02:13:05;;;;;;;;;;;;;;;19.93;36.49;100529.10;102653;1292;62254;-80
2024/03/19 02:15:30;;;;;;;;;;;;;;;19.94;36.50;100526.05;102667;1292;63388;-80
2024/03/19 02:17:56;;;;;;;;;;;;;;;19.93;36.50;100529.81;102834;1292;63409;-80
2024/03/19 02:20:22;;;;;;;;;;;;;;;19.93;36.50;100532.12;102721;1291;63338;-82
2024/03/19 02:22:49;;;;;;;;;;;;;;;19.94;36.40;100531.39;102155;1297;699805;-79
2024/03/19 02:25:18;;;;;;;;;;;;;;;19.94;36.33;100526.77;102700;1291;62194;-80
2024/03/19 02:27:44;;;;;;;;;;;;;;;19.95;36.18;100530.11;102541;1293;75510;-78
2024/03/19 02:30:10;;;;;;;;;;;;;;;19.94;36.37;100525.65;102691;1292;62196;-82
2024/03/19 02:32:35;;;;;;;;;;;;;;;19.94;36.34;100525.67;102759;1292;63159;-80
2024/03/19 02:35:01;;;;;;;;;;;;;;;19.94;36.35;100527.80;102694;1291;62215;-80
2024/03/19 02:37:26;;;;;;;;;;;;;;;19.94;36.33;100526.58;102732;1297;62177;-80
2024/03/19 02:39:52;;;;;;;;;;;;;;;19.94;36.27;100523.16;102702;1295;62174;-81
2024/03/19 02:42:19;;;;;;;;;;;;;;;19.94;36.22;100527.45;102606;1292;62204;-81
2024/03/19 02:44:46;;;;;;;;;;;;;;;19.93;36.21;100528.56;102685;1292;62212;-80
2024/03/19 02:47:11;;;;;;;;;;;;;;;19.93;36.23;100531.81;102691;1292;63321;-80
2024/03/19 02:49:37;;;;;;;;;;;;;;;19.92;36.23;100533.98;102614;1291;63461;-81
2024/03/19 02:52:04;;;;;;;;;;;;;;;19.93;36.15;100537.14;102752;1296;62664;-79
2024/03/19 02:54:29;;;;;;;;;;;;;;;19.92;36.22;100537.54;102664;1297;62186;-80
2024/03/19 02:56:55;;;;;;;;;;;;;;;19.93;36.24;100540.73;102616;1291;62187;-79
2024/03/19 02:59:22;;;;;;;;;;;;;;;19.93;36.00;100540.02;102638;1296;62233;-82
2024/03/19 03:01:48;;;;;;;;;;;;;;;19.93;36.06;100539.29;102679;1292;62206;-79
2024/03/19 03:04:14;;;;;;;;;;;;;;;19.93;36.09;100534.11;102788;1292;62193;-79
2024/03/19 03:06:40;;;;;;;;;;;;;;;19.92;36.10;100532.90;102692;1292;63335;-80
2024/03/19 03:09:06;;;;;;;;;;;;;;;19.92;36.08;100536.87;102635;1292;62347;-79
2024/03/19 03:11:32;;;;;;;;;;;;;;;19.92;36.09;100535.59;102809;1296;62119;-80
2024/03/19 03:13:58;;;;;;;;;;;;;;;19.92;36.01;100545.05;102664;1291;63394;-80
2024/03/19 03:16:24;;;;;;;;;;;;;;;19.92;36.01;100546.13;102672;1295;62185;-81
2024/03/19 03:18:49;;;;;;;;;;;;;;;19.92;35.98;100545.58;102723;1292;62485;-80
2024/03/19 03:21:15;;;;;;;;;;;;;;;19.92;35.90;100549.35;102645;1292;62463;-80
2024/03/19 03:23:41;;;;;;;;;;;;;;;19.92;35.98;100546.68;102743;1292;62261;-82
2024/03/19 03:26:07;;;;;;;;;;;;;;;19.93;35.83;100557.34;102673;1296;62204;-80
2024/03/19 03:28:32;;;;;;;;;;;;;;;19.92;35.94;100562.39;102729;1292;62177;-80
2024/03/19 03:30:58;;;;;;;;;;;;;;;19.92;35.84;100554.33;102637;1292;62538;-79
2024/03/19 03:33:23;;;;;;;;;;;;;;;19.92;35.86;100555.95;102689;1292;63400;-80
2024/03/19 03:35:49;;;;;;;;;;;;;;;19.92;35.78;100555.59;102732;1292;62219;-79
2024/03/19 03:38:15;;;;;;;;;;;;;;;19.92;35.80;100554.38;102636;1291;62287;-82
2024/03/19 03:40:40;;;;;;;;;;;;;;;19.92;35.80;100555.41;102775;1291;62662;-81
2024/03/19 03:43:06;;;;;;;;;;;;;;;19.92;35.79;100560.77;102675;1291;63481;-80
2024/03/19 03:45:31;;;;;;;;;;;;;;;19.92;35.84;100560.98;102609;1297;63407;-79
2024/03/19 03:47:57;;;;;;;;;;;;;;;19.93;35.71;100561.99;102595;1292;62274;-80
2024/03/19 03:50:22;;;;;;;;;;;;;;;19.92;35.74;100564.55;102741;1297;64038;-80
2024/03/19 03:52:48;;;;;;;;;;;;;;;19.92;35.65;100569.20;102691;1296;62081;-80
2024/03/19 03:55:15;;;;;;;;;;;;;;;19.92;35.63;100572.45;102632;1296;62675;-80
2024/03/19 03:57:40;;;;;;;;;;;;;;;19.91;35.67;100575.31;102627;1297;63381;-79
2024/03/19 04:00:11;;;;;;;;;;;;;;;19.91;35.79;100570.33;102858;1291;62249;-81
2024/03/19 04:02:43;;;;;;;;;;;;;;;19.92;35.74;100574.79;102625;1297;62082;-80
2024/03/19 04:05:09;;;;;;;;;;;;;;;19.91;35.58;100577.47;102578;1298;72264;-81
2024/03/19 04:07:39;;;;;;;;;;;;;;;19.92;35.60;100576.70;102721;1292;62229;-80
2024/03/19 04:10:05;;;;;;;;;;;;;;;19.91;35.60;100577.47;102747;1292;62815;-80
2024/03/19 04:12:31;;;;;;;;;;;;;;;19.91;35.59;100581.05;102625;1294;62264;-78
2024/03/19 04:14:56;;;;;;;;;;;;;;;19.91;35.50;100582.81;102610;1298;62209;-80
2024/03/19 04:17:22;;;;;;;;;;;;;;;19.91;35.48;100583.17;102702;1297;63364;-81
2024/03/19 04:19:47;;;;;;;;;;;;;;;19.91;35.40;100585.52;102683;1293;62309;-80
2024/03/19 04:22:13;;;;;;;;;;;;;;;19.91;35.50;100583.58;102741;1292;62142;-80
2024/03/19 04:24:39;;;;;;;;;;;;;;;19.90;35.61;100588.23;102739;1292;62094;-79
2024/03/19 04:27:04;;;;;;;;;;;;;;;19.91;35.50;100590.19;102767;1291;62204;-80
2024/03/19 04:29:30;;;;;;;;;;;;;;;19.90;35.47;100590.22;102652;1297;62252;-79
2024/03/19 04:31:55;;;;;;;;;;;;;;;19.90;35.43;100596.96;102662;1297;62303;-80
2024/03/19 04:34:21;;;;;;;;;;;;;;;19.91;35.44;100599.98;102809;1291;62224;-79
2024/03/19 04:36:47;;;;;;;;;;;;;;;19.91;35.40;100597.14;102720;1293;63239;-80
2024/03/19 04:39:14;;;;;;;;;;;;;;;19.91;35.38;100598.39;102713;1292;63373;-80
2024/03/19 04:41:39;;;;;;;;;;;;;;;19.91;35.38;100598.05;102727;1297;62449;-81
2024/03/19 04:44:08;;;;;;;;;;;;;;;19.90;35.28;100605.73;102712;1297;62206;-81
2024/03/19 04:46:34;;;;;;;;;;;;;;;19.91;35.48;100609.83;102754;1292;63245;-81
2024/03/19 04:48:59;;;;;;;;;;;;;;;19.91;35.39;100614.66;102718;1291;62229;-79
2024/03/19 04:51:28;;;;;;;;;;;;;;;19.91;35.36;100618.05;102707;1297;62290;-80
2024/03/19 04:53:53;;;;;;;;;;;;;;;19.90;35.30;100620.23;102687;1291;62110;-81
2024/03/19 04:56:20;;;;;;;;;;;;;;;19.90;35.37;100619.32;102771;1292;62835;-80
2024/03/19 04:58:45;;;;;;;;;;;;;;;19.90;35.26;100625.58;102646;1291;62227;-81
2024/03/19 05:01:12;;;;;;;;;;;;;;;19.90;35.18;100622.73;102651;1298;62217;-79
2024/03/19 05:03:38;;;;;;;;;;;;;;;19.88;35.25;100630.87;102757;1292;62198;-80
2024/03/19 05:06:04;;;;;;;;;;;;;;;19.88;35.21;100629.30;102667;1296;62205;-80
2024/03/19 05:08:30;;;;;;;;;;;;;;;19.88;35.16;100636.12;102688;1292;62290;-80
2024/03/19 05:10:56;;;;;;;;;;;;;;;19.88;35.14;100637.73;102699;1296;62708;-79
2024/03/19 05:13:22;;;;;;;;;;;;;;;19.88;34.92;100641.13;102716;1295;62184;-79
2024/03/19 05:15:47;;;;;;;;;;;;;;;19.87;35.08;100641.88;102798;1297;62471;-80
2024/03/19 05:18:13;;;;;;;;;;;;;;;19.86;35.17;100646.57;102665;1295;63435;-79
2024/03/19 05:20:38;;;;;;;;;;;;;;;19.85;35.01;100649.70;102723;1291;63431;-79
2024/03/19 05:23:04;;;;;;;;;;;;;;;19.84;34.96;100649.05;102677;1292;62182;-80
2024/03/19 05:25:29;;;;;;;;;;;;;;;19.83;35.08;100651.78;102682;1297;62138;-79
2024/03/19 05:27:55;;;;;;;;;;;;;;;19.82;34.88;100652.27;102644;1296;62654;-80
2024/03/19 05:30:21;;;;;;;;;;;;;;;19.81;34.90;100653.55;102799;1297;63281;-78
2024/03/19 05:32:46;;;;;;;;;;;;;;;19.81;34.87;100655.89;102629;1297;62342;-80
2024/03/19 05:35:12;;;;;;;;;;;;;;;19.81;34.95;100655.52;102715;1295;62220;-82
2024/03/19 05:37:37;;;;;;;;;;;;;;;19.81;34.90;100662.12;102731;1292;62763;-81
2024/03/19 05:40:06;;;;;;;;;;;;;;;19.80;34.70;100661.83;102786;1295;62192;-83
2024/03/19 05:42:32;;;;;;;;;;;;;;;19.77;34.86;100661.61;102777;1295;62198;-81
2024/03/19 05:44:58;;;;;;;;;;;;;;;19.74;34.90;100660.20;103055;1293;62196;-80
2024/03/19 05:47:23;;;;;;;;;;;;;;;19.73;34.91;100666.20;103214;1292;64183;-80
2024/03/19 05:49:50;;;;;;;;;;;;;;;19.71;34.71;100666.48;103550;1295;62162;-80
2024/03/19 05:52:16;;;;;;;;;;;;;;;19.69;34.69;100667.91;103799;1296;62203;-82
2024/03/19 05:54:42;;;;;;;;;;;;;;;19.63;34.81;100667.93;103741;1292;62112;-79
2024/03/19 05:57:08;;;;;;;;;;;;;;;19.58;34.67;100673.62;103821;1291;62102;-80
2024/03/19 05:59:33;;;;;;;;;;;;;;;19.56;34.69;100684.07;103960;1295;62083;-80
2024/03/19 06:02:00;;;;;;;;;;;;;;;19.55;34.79;100684.52;103976;1296;62057;-81
2024/03/19 06:04:28;;;;;;;;;;;;;;;19.56;35.06;100688.57;103755;1297;62109;-80
2024/03/19 06:06:54;;;;;;;;;;;;;;;19.60;35.32;100700.08;105618;1291;72828;-80
2024/03/19 06:09:19;;;;;;;;;;;;;;;19.65;35.60;100700.34;103713;1292;62105;-82
2024/03/19 06:11:47;;;;;;;;;;;;;;;19.68;35.78;100700.45;103850;1297;62278;-81
2024/03/19 06:14:13;;;;;;;;;;;;;;;19.71;35.90;100703.08;103566;1294;62114;-81
2024/03/19 06:16:38;;;;;;;;;;;;;;;19.75;35.76;100707.13;103591;1297;62286;-80
2024/03/19 06:19:04;;;;;;;;;;;;;;;19.76;35.77;100711.14;103614;1292;62201;-80
2024/03/19 06:21:29;;;;;;;;;;;;;;;19.78;35.82;100709.99;103951;1297;62176;-81
2024/03/19 06:23:55;;;;;;;;;;;;;;;19.79;35.70;100714.89;104183;1292;62199;-79
2024/03/19 06:26:21;;;;;;;;;;;;;;;19.81;35.61;100720.70;104374;1291;62101;-80
2024/03/19 06:28:46;;;;;;;;;;;;;;;19.83;35.64;100718.77;104013;1298;62286;-80
2024/03/19 06:31:12;;;;;;;;;;;;;;;19.85;35.69;100725.40;104135;1292;62105;-80
2024/03/19 06:33:38;;;;;;;;;;;;;;;19.87;35.57;100728.11;104218;1291;60763;-80
2024/03/19 06:36:03;;;;;;;;;;;;;;;19.90;35.59;100736.31;104434;1292;62239;-80
2024/03/19 06:38:29;;;;;;;;;;;;;;;19.92;35.47;100744.42;104328;1294;62230;-79
2024/03/19 06:40:55;;;;;;;;;;;;;;;19.95;35.56;100751.58;104191;1295;62119;-81
2024/03/19 06:43:20;;;;;;;;;;;;;;;19.97;35.45;100754.99;104285;1297;62267;-79
2024/03/19 06:45:46;;;;;;;;;;;;;;;19.99;35.37;100761.50;104149;1296;62055;-80
2024/03/19 06:48:12;;;;;;;;;;;;;;;20.01;35.69;100760.80;104110;1298;62188;-79
2024/03/19 06:50:38;;;;;;;;;;;;;;;20.02;35.53;100765.54;103884;1297;62146;-80
2024/03/19 06:53:04;;;;;;;;;;;;;;;20.03;35.44;100767.08;104430;1299;60181;-82
2024/03/19 06:55:31;;;;;;;;;;;;;;;19.92;35.20;100767.27;103868;1296;74267;-80
2024/03/19 06:57:58;;;;;;;;;;;;;;;19.83;35.41;100765.41;104048;1298;60877;-79
2024/03/19 07:00:24;;;;;;;;;;;;;;;19.83;35.49;100774.13;104191;1298;62313;-81
2024/03/19 07:02:51;;;;;;;;;;;;;;;19.85;35.52;100774.34;104088;1297;72417;-79
2024/03/19 07:05:17;;;;;;;;;;;;;;;19.85;35.60;100779.39;103973;1301;62162;-81
2024/03/19 07:07:42;;;;;;;;;;;;;;;19.85;35.65;100777.92;103795;1300;60475;-80
2024/03/19 07:10:10;;;;;;;;;;;;;;;19.87;35.66;100772.80;103741;1300;63431;-81
2024/03/19 07:12:36;;;;;;;;;;;;;;;19.88;35.67;100777.70;103878;1300;62188;-80
2024/03/19 07:15:04;;;;;;;;;;;;;;;19.91;35.66;100780.22;104057;1300;62291;-80
2024/03/19 07:17:30;;;;;;;;;;;;;;;19.93;35.66;100782.89;103946;1292;62272;-79
2024/03/19 07:19:56;;;;;;;;;;;;;;;19.95;35.65;100789.57;103935;1298;62006;-82
2024/03/19 07:22:22;;;;;;;;;;;;;;;19.97;35.63;100789.10;104031;1296;62105;-83
2024/03/19 07:24:48;;;;;;;;;;;;;;;19.98;35.52;100796.69;104130;1305;62206;-80
2024/03/19 07:27:14;;;;;;;;;;;;;;;20.00;35.56;100801.09;104050;1291;61957;-81
2024/03/19 07:29:41;;;;;;;;;;;;;;;20.00;35.82;100808.70;104069;1292;62171;-82
2024/03/19 07:32:10;;;;;;;;;;;;;;;20.00;35.47;100806.94;103968;1294;62273;-82
2024/03/19 07:34:37;;;;;;;;;;;;;;;20.00;35.61;100811.98;103917;1291;62524;-81
2024/03/19 07:37:03;;;;;;;;;;;;;;;20.00;35.72;100818.04;103967;1292;61966;-81
2024/03/19 07:39:29;;;;;;;;;;;;;;;20.00;35.71;100823.38;104279;1290;62434;-81
2024/03/19 07:41:55;;;;;;;;;;;;;;;20.00;35.53;100827.11;104292;1292;62165;-82
2024/03/19 07:44:20;;;;;;;;;;;;;;;20.01;35.61;100830.30;104298;1295;62197;-81
2024/03/19 07:46:46;;;;;;;;;;;;;;;20.02;35.69;100834.02;104019;1296;62104;-81
2024/03/19 07:49:11;;;;;;;;;;;;;;;20.02;35.67;100836.42;104043;1291;62186;-82
2024/03/19 07:51:37;;;;;;;;;;;;;;;20.02;35.73;100837.69;103991;1292;62103;-82
2024/03/19 07:54:02;;;;;;;;;;;;;;;20.02;35.57;100835.20;104604;1292;62145;-84
2024/03/19 07:56:30;;;;;;;;;;;;;;;20.01;35.64;100833.87;104898;1291;61489;-83
2024/03/19 07:58:56;;;;;;;;;;;;;;;20.00;35.62;100836.59;104532;1291;62269;-82
2024/03/19 08:01:22;;;;;;;;;;;;;;;20.01;35.63;100838.84;104573;1291;62142;-81
2024/03/19 08:03:47;;;;;;;;;;;;;;;20.03;35.71;100840.36;104417;1294;62134;-81
2024/03/19 08:06:13;;;;;;;;;;;;;;;20.05;35.77;100845.23;104235;1291;62229;-81
2024/03/19 08:08:38;;;;;;;;;;;;;;;20.06;36.03;100848.88;104062;1293;60250;-79
2024/03/19 08:11:05;;;;;;;;;;;;;;;20.07;35.98;100850.06;104289;1291;62085;-80
2024/03/19 08:13:31;;;;;;;;;;;;;;;20.07;36.07;100850.58;104114;1292;62379;-83
2024/03/19 08:15:57;;;;;;;;;;;;;;;20.08;36.16;100851.05;104111;1296;62287;-83
2024/03/19 08:18:23;;;;;;;;;;;;;;;20.09;36.22;100855.32;103785;1291;62428;-81
2024/03/19 08:20:48;;;;;;;;;;;;;;;20.09;35.88;100855.80;104099;1293;62121;-81
2024/03/19 08:23:15;;;;;;;;;;;;;;;20.11;36.01;100861.77;104176;1292;62502;-80
2024/03/19 08:25:41;;;;;;;;;;;;;;;20.11;36.19;100863.73;103927;1292;62290;-80
2024/03/19 08:28:07;;;;;;;;;;;;;;;20.12;36.13;100868.33;103768;1292;62265;-81
2024/03/19 08:30:33;;;;;;;;;;;;;;;20.13;36.28;100869.70;104072;1294;62119;-81
2024/03/19 08:32:59;;;;;;;;;;;;;;;20.14;36.32;100869.63;103908;1291;62099;-81
2024/03/19 08:35:24;;;;;;;;;;;;;;;20.16;36.28;100865.77;104082;1291;62182;-82
2024/03/19 08:37:50;;;;;;;;;;;;;;;20.16;36.33;100868.23;103929;1291;63139;-81
2024/03/19 08:40:15;;;;;;;;;;;;;;;20.17;36.39;100868.89;104025;1291;62073;-82
2024/03/19 08:42:41;;;;;;;;;;;;;;;20.17;36.37;100869.04;104164;1295;62200;-82
2024/03/19 08:45:12;;;;;;;;;;;;;;;20.18;36.41;100870.59;104370;1291;62114;-81
2024/03/19 08:47:38;;;;;;;;;;;;;;;20.19;36.51;100873.06;104178;1295;60004;-82
2024/03/19 08:50:06;;;;;;;;;;;;;;;20.18;36.37;100876.84;104123;1291;62311;-82
2024/03/19 08:52:34;;;;;;;;;;;;;;;20.18;36.51;100873.84;104433;1295;76051;-81
2024/03/19 08:55:00;;;;;;;;;;;;;;;20.15;36.52;100872.45;104435;1294;59842;-83
2024/03/19 08:57:26;;;;;;;;;;;;;;;20.13;36.42;100873.47;104755;1291;62091;-81
2024/03/19 08:59:52;;;;;;;;;;;;;;;20.10;36.55;100869.66;104083;1291;62687;-80
2024/03/19 09:02:17;;;;;;;;;;;;;;;20.10;36.57;100869.55;104166;1291;62296;-81
2024/03/19 09:04:44;;;;;;;;;;;;;;;20.10;36.61;100872.04;104230;1291;62198;-78
2024/03/19 09:07:11;;;;;;;;;;;;;;;20.09;36.54;100878.14;104439;1292;62125;-79
2024/03/19 09:09:37;;;;;;;;;;;;;;;20.10;36.60;100879.55;105818;1292;59912;-79
2024/03/19 09:12:02;;;;;;;;;;;;;;;20.10;36.66;100872.00;105888;1294;59955;-79
2024/03/19 09:14:28;;;;;;;;;;;;;;;20.12;36.70;100874.55;105851;1291;59591;-79
2024/03/19 09:16:54;;;;;;;;;;;;;;;20.14;36.60;100874.44;105998;1291;59710;-79
2024/03/19 09:19:20;;;;;;;;;;;;;;;20.16;36.48;100871.30;105933;1294;61245;-79
2024/03/19 09:21:45;;;;;;;;;;;;;;;20.17;36.55;100869.73;104509;1291;62057;-79
2024/03/19 09:24:11;;;;;;;;;;;;;;;20.19;36.56;100873.77;104427;1292;62689;-80
2024/03/19 09:26:36;;;;;;;;;;;;;;;20.20;36.62;100873.69;104536;1292;60849;-78
2024/03/19 09:29:02;;;;;;;;;;;;;;;20.21;36.60;100866.98;104443;1292;62114;-80
2024/03/19 09:31:28;;;;;;;;;;;;;;;20.23;36.62;100870.08;104801;1291;62111;-79
2024/03/19 09:33:53;;;;;;;;;;;;;;;20.24;36.49;100869.85;104526;1290;72659;-80
2024/03/19 09:36:19;;;;;;;;;;;;;;;20.25;36.46;100875.88;104826;1294;62151;-80
2024/03/19 09:38:48;;;;;;;;;;;;;;;20.26;36.38;100880.61;104739;1291;63280;-80
2024/03/19 09:41:14;;;;;;;;;;;;;;;20.27;36.43;100877.69;105955;1291;59974;-80
2024/03/19 09:43:40;;;;;;;;;;;;;;;20.28;36.50;100880.66;105911;1292;72543;-80
2024/03/19 09:46:07;;;;;;;;;;;;;;;20.29;36.41;100881.84;105864;1294;75324;-80
2024/03/19 09:48:33;;;;;;;;;;;;;;;20.29;36.43;100880.41;105997;1291;60229;-80
2024/03/19 09:50:59;;;;;;;;;;;;;;;20.23;36.04;100877.25;104705;1291;60389;-83
2024/03/19 09:53:26;;;;;;;;;;;;;;;20.07;35.92;100876.49;104498;1291;62084;-80
2024/03/19 09:55:54;;;;;;;;;;;;;;;19.83;35.74;100871.66;104892;1292;62118;-82
2024/03/19 09:58:21;;;;;;;;;;;;;;;19.48;35.64;100878.84;104859;1291;60388;-80
2024/03/19 10:00:46;;;;;;;;;;;;;;;19.06;35.72;100875.55;104817;1291;61955;-81
2024/03/19 10:03:15;;;;;;;;;;;;;;;19.01;36.28;100876.94;104766;1292;60383;-81
2024/03/19 10:05:41;;;;;;;;;;;;;;;18.94;36.02;100875.36;105021;1295;75428;-81
2024/03/19 10:08:07;;;;;;;;;;;;;;;18.75;35.99;100875.42;104963;1292;60783;-81
2024/03/19 10:10:32;;;;;;;;;;;;;;;18.67;36.07;100874.10;105331;1291;60718;-83
2024/03/19 10:12:59;;;;;;;;;;;;;;;18.76;36.25;100871.98;105163;1294;60626;-82
2024/03/19 10:15:24;;;;;;;;;;;;;;;18.84;36.41;100877.54;105218;1291;60507;-81
2024/03/19 10:17:51;;;;;;;;;;;;;;;18.94;36.25;100880.91;105111;1291;60441;-81
2024/03/19 10:20:17;;;;;;;;;;;;;;;19.05;36.30;100891.30;105899;1291;59624;-81
2024/03/19 10:22:44;;;;;;;;;;;;;;;19.14;36.39;100894.84;105819;1291;60183;-82
2024/03/19 10:25:12;;;;;;;;;;;;;;;19.21;36.32;100897.80;105941;1291;60694;-82
2024/03/19 10:27:44;;;;;;;;;;;;;;;19.27;36.22;100901.18;105856;1291;60263;-82
2024/03/19 10:30:11;;;;;;;;;;;;;;;19.32;36.17;100901.59;105824;1291;60580;-80
2024/03/19 10:32:37;;;;;;;;;;;;;;;19.37;36.15;100900.77;105690;1291;72489;-82
2024/03/19 10:35:03;;;;;;;;;;;;;;;19.42;36.07;100902.95;105866;1291;60785;-82
2024/03/19 10:37:28;;;;;;;;;;;;;;;19.49;36.03;100903.40;105525;1294;60401;-82
2024/03/19 10:39:54;;;;;;;;;;;;;;;19.57;36.21;100902.92;105543;1294;60004;-82
2024/03/19 10:42:20;;;;;;;;;;;;;;;19.64;36.22;100901.00;105468;1294;59703;-85
2024/03/19 10:44:45;;;;;;;;;;;;;;;19.72;36.19;100902.30;105527;1295;60436;-82
2024/03/19 10:47:12;;;;;;;;;;;;;;;19.77;36.28;100899.13;105582;1294;75238;-82
2024/03/19 10:49:37;;;;;;;;;;;;;;;19.77;36.25;100900.23;105557;1294;60464;-82
2024/03/19 10:52:10;;;;;;;;;;;;;;;19.73;36.06;100894.55;105552;1294;60372;-82
2024/03/19 10:54:36;;;;;;;;;;;;;;;19.74;36.19;100892.91;105461;1294;72713;-82
2024/03/19 10:57:02;;;;;;;;;;;;;;;19.76;36.07;100894.92;105540;1294;60303;-81
2024/03/19 10:59:36;;;;;;;;;;;;;;;19.76;36.14;100894.34;105419;1294;59764;-81
2024/03/19 11:02:06;;;;;;;;;;;;;;;19.75;35.92;100899.27;105400;1294;60796;-82
2024/03/19 11:04:31;;;;;;;;;;;;;;;19.68;35.84;100898.46;105272;1294;71419;-80
2024/03/19 11:06:58;;;;;;;;;;;;;;;19.51;35.45;100898.09;105295;1300;61035;-83
2024/03/19 11:09:27;;;;;;;;;;;;;;;19.25;35.38;100897.38;105729;1291;60302;-82
2024/03/19 11:12:01;;;;;;;;;;;;;;;19.16;35.73;100898.98;105755;1292;60377;-82
2024/03/19 11:14:28;;;;;;;;;;;;;;;18.95;35.34;100899.21;105788;1292;73454;-79
2024/03/19 11:16:54;;;;;;;;;;;;;;;18.78;35.37;100895.93;105816;1292;75227;-79
2024/03/19 11:19:20;;;;;;;;;;;;;;;18.75;35.61;100894.13;104454;1291;62140;-80
2024/03/19 11:21:50;;;;;;;;;;;;;;;18.83;35.55;100888.13;104660;1291;62203;-80
2024/03/19 11:24:28;;;;;;;;;;;;;;;18.93;35.50;100887.93;104345;1295;71412;-80
2024/03/19 11:26:54;;;;;;;;;;;;;;;19.03;35.42;100888.01;104653;1291;75367;-79
2024/03/19 11:29:21;;;;;;;;;;;;;;;19.14;35.62;100884.35;104587;1291;62063;-80
2024/03/19 11:31:48;;;;;;;;;;;;;;;19.23;35.45;100877.48;105809;1291;60695;-82
2024/03/19 11:34:14;;;;;;;;;;;;;;;19.32;35.55;100880.20;105789;1291;60324;-80
2024/03/19 11:36:46;;;;;;;;;;;;;;;19.39;35.44;100877.77;105920;1291;60669;-79
2024/03/19 11:39:12;;;;;;;;;;;;;;;19.48;35.49;100880.27;105693;1291;62227;-79
2024/03/19 11:41:38;;;;;;;;;;;;;;;19.55;35.57;100877.50;104298;1291;62161;-80
2024/03/19 11:44:03;;;;;;;;;;;;;;;19.60;35.42;100885.91;104493;1292;62162;-79
2024/03/19 11:46:29;;;;;;;;;;;;;;;19.63;35.46;100887.88;104199;1298;62406;-81
2024/03/19 11:48:54;;;;;;;;;;;;;;;19.62;35.42;100890.66;104481;1291;62095;-80
2024/03/19 11:51:21;;;;;;;;;;;;;;;19.61;35.29;100889.45;104069;1291;62152;-81
2024/03/19 11:53:47;;;;;;;;;;;;;;;19.63;35.38;100893.48;104048;1292;62007;-80
2024/03/19 11:56:13;;;;;;;;;;;;;;;19.64;35.20;100893.92;104057;1295;73823;-80
2024/03/19 11:58:39;;;;;;;;;;;;;;;19.66;35.39;100896.27;104329;1291;62133;-82
2024/03/19 12:01:08;;;;;;;;;;;;;;;19.70;35.34;100895.32;104792;1291;62140;-81
2024/03/19 12:03:34;;;;;;;;;;;;;;;19.62;34.91;100898.46;104905;1291;61681;-80
2024/03/19 12:05:59;;;;;;;;;;;;;;;19.27;34.58;100895.51;105171;1292;60707;-81
2024/03/19 12:08:25;;;;;;;;;;;;;;;18.99;34.78;100897.17;105192;1294;62344;-81
2024/03/19 12:10:51;;;;;;;;;;;;;;;18.87;34.68;100893.80;105110;1291;62047;-80
2024/03/19 12:13:17;;;;;;;;;;;;;;;18.74;34.74;100896.16;104879;1291;62174;-79
2024/03/19 12:15:42;;;;;;;;;;;;;;;18.76;34.93;100894.23;104778;1291;62096;-79
2024/03/19 12:18:08;;;;;;;;;;;;;;;18.83;34.94;100895.10;105003;1295;59695;-81
2024/03/19 12:20:34;;;;;;;;;;;;;;;18.90;34.93;100897.70;104903;1291;62107;-80